createdAt,value
2023-04-19T00:01:38.118Z,7.66
2023-04-19T00:06:42.489Z,7.64
2023-04-19T00:11:49.587Z,7.66
2023-04-19T00:16:53.757Z,7.67
2023-04-19T00:21:57.722Z,7.68
2023-04-19T00:27:03.842Z,7.59
2023-04-19T00:32:08.877Z,7.62
2023-04-19T00:37:12.918Z,7.73
2023-04-19T00:42:18.450Z,7.65
2023-04-19T00:47:24.499Z,7.43
2023-04-19T00:52:29.135Z,7.36
2023-04-19T00:57:35.722Z,7.20
2023-04-19T01:02:39.895Z,7.16
2023-04-19T01:07:44.702Z,7.15
2023-04-19T01:12:52.961Z,7.10
2023-04-19T01:17:57.693Z,7.10
2023-04-19T01:23:03.209Z,7.12
2023-04-19T01:28:07.239Z,7.18
2023-04-19T01:33:11.198Z,7.23
2023-04-19T01:38:17.119Z,7.14
2023-04-19T01:43:21.144Z,7.17
2023-04-19T01:48:25.098Z,7.18
2023-04-19T01:53:32.000Z,7.12
2023-04-19T01:58:35.895Z,7.04
2023-04-19T02:03:40.426Z,7.03
2023-04-19T02:08:45.925Z,7.02
2023-04-19T02:13:50.108Z,7.02
2023-04-19T02:18:54.109Z,6.96
2023-04-19T02:23:59.756Z,6.92
2023-04-19T02:29:05.559Z,6.90
2023-04-19T02:34:10.707Z,6.90
2023-04-19T02:39:17.054Z,6.81
2023-04-19T02:44:21.004Z,6.70
2023-04-19T02:49:25.080Z,6.66
2023-04-19T02:54:30.707Z,6.57
2023-04-19T02:59:34.897Z,6.63
2023-04-19T03:04:41.625Z,6.69
2023-04-19T03:09:47.076Z,6.69
2023-04-19T03:14:51.294Z,6.73
2023-04-19T03:19:55.271Z,6.78
2023-04-19T03:25:01.524Z,6.84
2023-04-19T03:30:06.842Z,6.77
2023-04-19T03:35:11.694Z,6.84
2023-04-19T03:40:18.152Z,6.76
2023-04-19T03:45:22.797Z,6.71
2023-04-19T03:50:26.966Z,6.74
2023-04-19T03:55:34.564Z,6.71
2023-04-19T04:00:40.794Z,6.76
2023-04-19T04:05:44.910Z,6.77
2023-04-19T04:10:50.325Z,6.87
2023-04-19T04:15:54.584Z,6.94
2023-04-19T04:20:58.853Z,7.04
2023-04-19T04:26:06.852Z,7.16
2023-04-19T04:31:22.727Z,7.16
2023-04-19T04:36:30.046Z,7.08
2023-04-19T04:41:36.953Z,6.94
2023-04-19T04:46:42.846Z,6.97
2023-04-19T04:51:50.667Z,7.03
2023-04-19T04:56:56.249Z,7.11
2023-04-19T05:02:00.729Z,7.22
2023-04-19T05:07:05.275Z,7.32
2023-04-19T05:12:11.743Z,7.40
2023-04-19T05:17:15.861Z,7.53
2023-04-19T05:22:20.535Z,7.48
2023-04-19T05:27:25.993Z,7.59
2023-04-19T05:32:31.370Z,7.57
2023-04-19T05:37:38.301Z,7.60
2023-04-19T05:42:44.883Z,7.75
2023-04-19T05:47:49.139Z,7.91
2023-04-19T05:53:30.336Z,7.89
2023-04-19T05:58:36.701Z,8.22
2023-04-19T06:03:41.180Z,8.40
2023-04-19T06:08:45.546Z,8.66
2023-04-19T06:13:51.852Z,8.74
2023-04-19T06:18:57.030Z,8.54
2023-04-19T06:24:01.008Z,8.56
2023-04-19T06:29:06.401Z,8.92
2023-04-19T06:34:11.190Z,8.94
2023-04-19T06:39:16.483Z,9.19
2023-04-19T06:44:21.873Z,9.15
2023-04-19T06:49:25.891Z,9.22
2023-04-19T06:54:29.977Z,9.69
2023-04-19T06:59:38.837Z,10.07
2023-04-19T07:04:42.846Z,9.83
2023-04-19T07:09:46.925Z,10.03
2023-04-19T07:14:56.440Z,9.88
2023-04-19T07:20:00.383Z,10.29
2023-04-19T07:25:04.528Z,10.03
2023-04-19T07:30:11.277Z,10.06
2023-04-19T07:35:18.277Z,10.41
2023-04-19T07:40:22.442Z,10.94
2023-04-19T07:45:27.766Z,12.62
2023-04-19T07:50:31.725Z,13.15
2023-04-19T07:55:39.107Z,13.02
2023-04-19T08:00:48.201Z,14.87
2023-04-19T08:05:52.220Z,15.46
2023-04-19T08:10:56.382Z,14.15
2023-04-19T08:21:08.752Z,16.21
2023-04-19T08:26:12.639Z,18.21
2023-04-19T08:31:19.866Z,18.79
2023-04-19T08:36:37.208Z,17.89
2023-04-19T08:41:48.181Z,15.44
2023-04-19T08:46:58.502Z,15.23
2023-04-19T08:52:03.289Z,14.48
2023-04-19T08:57:10.163Z,13.45
2023-04-19T09:02:15.973Z,13.55
2023-04-19T09:07:26.960Z,13.36
2023-04-19T09:12:31.176Z,14.38
2023-04-19T09:17:42.633Z,13.63
2023-04-19T09:23:04.790Z,14.60
2023-04-19T09:28:13.049Z,14.98
2023-04-19T09:33:33.166Z,14.58
2023-04-19T09:38:49.174Z,13.94
2023-04-19T09:44:13.968Z,14.34
2023-04-19T09:49:27.889Z,13.60
2023-04-19T09:54:42.753Z,12.48
2023-04-19T09:59:46.670Z,14.30
2023-04-19T10:10:15.846Z,15.63
2023-04-19T10:15:22.499Z,15.48
2023-04-19T10:20:33.970Z,14.84
2023-04-19T10:25:39.608Z,15.97
2023-04-19T10:30:55.001Z,17.29
2023-04-19T10:36:01.205Z,17.98
2023-04-19T10:41:05.626Z,19.32
2023-04-19T10:46:11.481Z,17.38
2023-04-19T10:51:21.270Z,17.38
2023-04-19T10:56:58.567Z,17.73
2023-04-19T11:02:04.223Z,16.93
2023-04-19T11:07:09.634Z,17.70
2023-04-19T11:12:18.286Z,18.52
2023-04-19T11:17:26.034Z,17.50
2023-04-19T11:22:37.431Z,17.23
2023-04-19T11:27:43.142Z,17.80
2023-04-19T11:32:48.724Z,18.62
2023-04-19T11:37:54.774Z,17.38
2023-04-19T11:43:00.622Z,18.90
2023-04-19T11:48:07.449Z,16.90
2023-04-19T11:53:15.166Z,19.38
2023-04-19T11:58:28.848Z,19.63
2023-04-19T12:03:33.029Z,18.49
2023-04-19T12:08:39.659Z,18.76
2023-04-19T12:13:44.553Z,18.67
2023-04-19T12:18:50.268Z,17.45
2023-04-19T12:23:57.654Z,15.54
2023-04-19T12:29:01.728Z,15.72
2023-04-19T12:34:05.673Z,15.20
2023-04-19T12:39:11.042Z,16.01
2023-04-19T12:44:15.180Z,16.39
2023-04-19T12:49:20.945Z,16.91
2023-04-19T12:54:26.349Z,15.53
2023-04-19T12:59:30.883Z,17.79
2023-04-19T13:04:38.317Z,19.15
2023-04-19T13:09:43.712Z,18.57
2023-04-19T13:14:51.489Z,16.15
2023-04-19T13:19:55.373Z,16.47
2023-04-19T13:25:00.664Z,16.38
2023-04-19T13:30:04.899Z,15.52
2023-04-19T13:35:10.540Z,14.30
2023-04-19T13:40:19.478Z,14.72
2023-04-19T13:45:24.131Z,15.17
2023-04-19T13:50:28.074Z,13.97
2023-04-19T13:55:33.726Z,13.38
2023-04-19T14:00:37.658Z,13.66
2023-04-19T14:05:41.866Z,13.94
2023-04-19T14:10:47.227Z,15.13
2023-04-19T14:15:51.867Z,14.47
2023-04-19T14:20:56.561Z,13.68
2023-04-19T14:26:02.014Z,14.19
2023-04-19T14:31:06.353Z,13.77
2023-04-19T14:36:10.516Z,12.65
2023-04-19T14:41:15.969Z,11.38
2023-04-19T14:46:20.034Z,10.93
2023-04-19T14:51:23.949Z,10.85
2023-04-19T14:56:29.268Z,10.70
2023-04-19T15:01:33.164Z,10.48
2023-04-19T15:06:37.406Z,10.31
2023-04-19T15:11:42.777Z,10.38
2023-04-19T15:16:46.715Z,10.16
2023-04-19T15:21:50.792Z,9.70
2023-04-19T15:26:56.688Z,9.64
2023-04-19T15:32:00.979Z,9.44
2023-04-19T15:37:06.562Z,9.31
2023-04-19T15:42:12.071Z,9.37
2023-04-19T15:47:16.040Z,9.35
2023-04-19T15:52:20.099Z,9.43
2023-04-19T15:57:25.690Z,9.44
2023-04-19T16:02:29.814Z,9.46
2023-04-19T16:07:34.025Z,9.65
2023-04-19T16:12:39.325Z,9.90
2023-04-19T16:17:43.240Z,9.91
2023-04-19T16:22:47.341Z,9.73
2023-04-19T16:27:52.704Z,9.77
2023-04-19T16:32:57.699Z,9.91
2023-04-19T16:38:04.366Z,9.84
2023-04-19T16:43:09.659Z,9.82
2023-04-19T16:48:13.740Z,9.84
2023-04-19T16:53:18.660Z,9.75
2023-04-19T16:58:23.976Z,9.70
2023-04-19T17:03:29.644Z,9.61
2023-04-19T17:08:33.921Z,9.62
2023-04-19T17:13:39.936Z,9.68
2023-04-19T17:18:43.930Z,9.70
2023-04-19T17:23:48.012Z,9.69
2023-04-19T17:28:53.408Z,9.73
2023-04-19T17:33:57.736Z,9.91
2023-04-19T17:39:01.794Z,9.87
2023-04-19T17:44:07.289Z,9.77
2023-04-19T17:49:12.888Z,9.65
2023-04-19T17:54:17.395Z,9.53
2023-04-19T17:59:23.726Z,9.42
2023-04-19T18:04:27.820Z,9.36
2023-04-19T18:09:32.120Z,9.50
2023-04-19T18:14:37.582Z,9.46
2023-04-19T18:19:41.516Z,9.52
2023-04-19T18:24:47.301Z,9.46
2023-04-19T18:29:53.267Z,9.35
2023-04-19T18:35:00.751Z,9.24
2023-04-19T18:40:07.021Z,9.07
2023-04-19T18:45:13.129Z,9.09
2023-04-19T18:50:19.101Z,9.22
2023-04-19T18:55:26.777Z,9.16
2023-04-19T19:00:32.093Z,9.24
2023-04-19T19:05:36.148Z,9.27
2023-04-19T19:11:07.178Z,9.35
2023-04-19T19:16:06.410Z,9.28
2023-04-19T19:21:10.332Z,9.22
2023-04-19T19:26:14.405Z,9.09
2023-04-19T19:31:20.008Z,9.00
2023-04-19T19:36:24.239Z,8.93
2023-04-19T19:41:55.188Z,8.92
2023-04-19T19:46:53.487Z,8.76
2023-04-19T19:51:59.438Z,8.82
2023-04-19T20:02:12.354Z,8.70
2023-04-19T20:12:23.125Z,8.54
2023-04-19T20:17:31.959Z,8.56
2023-04-19T20:22:35.964Z,8.47
2023-04-19T20:27:39.870Z,8.41
2023-04-19T20:32:45.301Z,8.57
2023-04-19T20:37:50.976Z,8.65
2023-04-19T20:42:54.992Z,8.70
2023-04-19T20:48:00.689Z,8.68
2023-04-19T20:53:04.629Z,8.61
2023-04-19T20:58:08.690Z,8.68
2023-04-19T21:03:14.241Z,8.73
2023-04-19T21:08:19.150Z,8.64
2023-04-19T21:13:23.026Z,8.26
2023-04-19T21:18:30.060Z,8.31
2023-04-19T21:23:35.752Z,8.52
2023-04-19T21:28:39.728Z,8.62
2023-04-19T21:33:45.121Z,8.49
2023-04-19T21:38:50.752Z,8.08
2023-04-19T21:43:54.775Z,8.03
2023-04-19T21:49:00.130Z,7.98
2023-04-19T21:54:04.090Z,7.98
2023-04-19T21:59:08.056Z,7.83
2023-04-19T22:04:14.421Z,7.85
2023-04-19T22:09:18.728Z,7.97
2023-04-19T22:14:24.130Z,7.97
2023-04-19T22:19:29.563Z,7.72
2023-04-19T22:24:34.727Z,7.79
2023-04-19T22:29:41.372Z,7.67
2023-04-19T22:34:47.027Z,7.53
2023-04-19T22:39:50.999Z,7.25
2023-04-19T22:44:54.925Z,7.17
2023-04-19T22:50:00.498Z,7.22
2023-04-19T22:55:04.640Z,7.21
2023-04-19T23:00:11.025Z,7.19
2023-04-19T23:05:18.064Z,7.00
2023-04-19T23:10:22.817Z,6.94
2023-04-19T23:15:29.501Z,7.27
2023-04-19T23:20:34.953Z,7.31
2023-04-19T23:25:38.962Z,7.09
2023-04-19T23:30:42.909Z,7.09
2023-04-19T23:35:48.283Z,7.08
2023-04-19T23:40:52.196Z,7.16
2023-04-19T23:45:56.252Z,7.19
2023-04-19T23:51:01.839Z,7.25
2023-04-19T23:56:06.660Z,7.44
